createdAt,value
2018-06-21T00:01:08.241Z,15.70
2018-06-21T00:03:36.986Z,15.70
2018-06-21T00:06:05.766Z,15.70
2018-06-21T00:08:34.530Z,15.70
2018-06-21T00:11:03.330Z,15.70
2018-06-21T00:13:32.103Z,15.80
2018-06-21T00:16:00.869Z,15.90
2018-06-21T00:18:29.650Z,15.90
2018-06-21T00:20:58.494Z,16.00
2018-06-21T00:23:27.278Z,16.10
2018-06-21T00:25:56.070Z,16.00
2018-06-21T00:28:24.833Z,16.00
2018-06-21T00:30:53.622Z,16.00
2018-06-21T00:33:22.366Z,16.00
2018-06-21T00:35:51.144Z,16.00
2018-06-21T00:38:19.913Z,16.10
2018-06-21T00:40:48.702Z,16.20
2018-06-21T00:43:17.478Z,16.30
2018-06-21T00:45:46.242Z,16.40
2018-06-21T00:48:15.023Z,16.40
2018-06-21T00:50:43.762Z,16.30
2018-06-21T00:53:12.558Z,16.30
2018-06-21T00:55:52.426Z,16.30
2018-06-21T00:58:21.149Z,16.20
2018-06-21T01:00:49.917Z,16.20
2018-06-21T01:03:18.704Z,16.20
2018-06-21T01:05:47.598Z,16.20
2018-06-21T01:08:16.340Z,16.30
2018-06-21T01:10:45.134Z,16.30
2018-06-21T01:13:13.974Z,16.30
2018-06-21T01:15:42.798Z,17.00
2018-06-21T01:18:11.678Z,16.20
2018-06-21T01:20:40.434Z,16.10
2018-06-21T01:23:09.197Z,16.10
2018-06-21T01:25:38.018Z,16.00
2018-06-21T01:28:07.678Z,16.00
2018-06-21T01:30:36.541Z,16.00
2018-06-21T01:33:05.355Z,16.00
2018-06-21T01:35:34.105Z,16.00
2018-06-21T01:38:02.914Z,16.00
2018-06-21T01:40:31.698Z,16.00
2018-06-21T01:43:00.442Z,16.10
2018-06-21T01:47:57.858Z,16.10
2018-06-21T01:50:26.625Z,16.10
2018-06-21T01:52:55.394Z,16.20
2018-06-21T01:55:24.269Z,16.10
2018-06-21T01:57:53.047Z,16.10
2018-06-21T02:00:21.862Z,16.20
2018-06-21T02:02:50.641Z,16.20
2018-06-21T02:05:19.401Z,16.40
2018-06-21T02:07:48.170Z,16.40
2018-06-21T02:10:16.938Z,16.40
2018-06-21T02:12:45.665Z,16.40
2018-06-21T02:17:42.841Z,16.30
2018-06-21T02:20:11.599Z,16.20
2018-06-21T02:22:40.386Z,16.10
2018-06-21T02:25:09.182Z,16.10
2018-06-21T02:27:37.945Z,16.10
2018-06-21T02:30:06.762Z,16.10
2018-06-21T02:32:35.539Z,16.10
2018-06-21T02:35:04.371Z,16.10
2018-06-21T02:37:33.153Z,16.10
2018-06-21T02:40:01.922Z,16.20
2018-06-21T02:42:30.635Z,16.20
2018-06-21T02:44:59.408Z,16.20
2018-06-21T02:47:28.178Z,16.20
2018-06-21T02:49:56.946Z,16.20
2018-06-21T02:52:25.726Z,16.20
2018-06-21T02:54:54.467Z,16.10
2018-06-21T02:57:26.170Z,16.10
2018-06-21T02:59:54.986Z,16.10
2018-06-21T03:02:23.758Z,16.20
2018-06-21T03:04:52.506Z,16.20
2018-06-21T03:07:21.279Z,16.20
2018-06-21T03:09:50.048Z,16.10
2018-06-21T03:12:21.814Z,16.10
2018-06-21T03:14:51.442Z,16.10
2018-06-21T03:17:20.249Z,16.00
2018-06-21T03:19:49.153Z,16.10
2018-06-21T03:22:17.959Z,16.10
2018-06-21T03:24:46.756Z,16.10
2018-06-21T03:27:15.517Z,16.10
2018-06-21T03:29:44.282Z,16.10
2018-06-21T03:32:12.989Z,16.10
2018-06-21T03:34:41.750Z,16.10
2018-06-21T03:37:10.477Z,16.20
2018-06-21T03:39:39.230Z,16.20
2018-06-21T03:42:07.956Z,16.20
2018-06-21T03:44:36.762Z,16.20
2018-06-21T03:47:05.550Z,16.20
2018-06-21T03:49:34.306Z,16.30
2018-06-21T03:52:03.102Z,16.30
2018-06-21T03:54:31.878Z,16.40
2018-06-21T03:57:00.659Z,16.40
2018-06-21T03:59:29.415Z,16.40
2018-06-21T04:01:58.251Z,16.40
2018-06-21T04:04:27.039Z,16.40
2018-06-21T04:06:55.817Z,16.40
2018-06-21T04:09:24.577Z,16.40
2018-06-21T04:11:53.355Z,16.40
2018-06-21T04:14:22.118Z,16.40
2018-06-21T04:16:50.882Z,16.50
2018-06-21T04:19:19.858Z,16.50
2018-06-21T04:21:48.639Z,16.60
2018-06-21T04:24:17.446Z,16.50
2018-06-21T04:26:46.209Z,16.50
2018-06-21T04:29:14.970Z,16.40
2018-06-21T04:31:43.681Z,16.40
2018-06-21T04:34:12.464Z,16.40
2018-06-21T04:36:41.222Z,16.50
2018-06-21T04:39:10.321Z,16.60
2018-06-21T04:41:39.082Z,16.80
2018-06-21T04:44:07.862Z,16.90
2018-06-21T04:46:36.606Z,16.90
2018-06-21T04:49:05.366Z,16.90
2018-06-21T04:51:34.119Z,17.00
2018-06-21T04:54:02.870Z,17.10
2018-06-21T04:56:31.634Z,17.10
2018-06-21T04:59:00.398Z,17.10
2018-06-21T05:01:29.158Z,17.10
2018-06-21T05:03:57.926Z,17.10
2018-06-21T05:08:55.125Z,17.10
2018-06-21T05:11:23.909Z,17.20
2018-06-21T05:13:52.726Z,17.30
2018-06-21T05:16:21.499Z,17.50
2018-06-21T05:18:50.448Z,17.60
2018-06-21T05:21:19.279Z,17.70
2018-06-21T05:23:48.036Z,17.50
2018-06-21T05:26:16.790Z,17.60
2018-06-21T05:28:45.603Z,17.60
2018-06-21T05:31:14.363Z,17.60
2018-06-21T05:33:43.166Z,17.30
2018-06-21T05:36:11.946Z,17.20
2018-06-21T05:38:40.707Z,17.30
2018-06-21T05:41:09.466Z,17.50
2018-06-21T05:43:38.226Z,17.40
2018-06-21T05:46:06.986Z,17.40
2018-06-21T05:48:35.753Z,17.60
2018-06-21T05:51:04.542Z,17.60
2018-06-21T05:53:33.290Z,17.50
2018-06-21T05:56:02.051Z,17.50
2018-06-21T05:58:30.846Z,17.50
2018-06-21T06:00:59.642Z,17.50
2018-06-21T06:03:28.372Z,17.60
2018-06-21T06:05:57.186Z,17.60
2018-06-21T06:08:26.011Z,17.60
2018-06-21T06:10:54.834Z,17.50
2018-06-21T06:13:23.611Z,17.40
2018-06-21T06:15:52.361Z,17.40
2018-06-21T06:18:21.142Z,17.40
2018-06-21T06:23:18.352Z,17.40
2018-06-21T06:25:47.132Z,17.40
2018-06-21T06:28:15.906Z,17.40
2018-06-21T06:30:44.686Z,17.50
2018-06-21T06:33:13.458Z,17.40
2018-06-21T06:35:42.232Z,17.40
2018-06-21T06:38:11.015Z,17.40
2018-06-21T06:40:39.807Z,17.50
2018-06-21T06:43:08.570Z,17.40
2018-06-21T06:45:37.323Z,17.40
2018-06-21T06:48:06.161Z,17.50
2018-06-21T06:50:34.918Z,17.60
2018-06-21T06:53:03.678Z,17.70
2018-06-21T06:55:32.537Z,17.60
2018-06-21T06:58:01.311Z,17.60
2018-06-21T07:00:30.078Z,17.60
2018-06-21T07:02:58.866Z,17.60
2018-06-21T07:05:27.680Z,17.60
2018-06-21T07:07:56.494Z,17.60
2018-06-21T07:10:25.253Z,17.70
2018-06-21T07:12:54.046Z,17.70
2018-06-21T07:15:22.856Z,17.80
2018-06-21T07:17:51.622Z,17.80
2018-06-21T07:20:20.528Z,17.80
2018-06-21T07:22:49.290Z,17.90
2018-06-21T07:25:18.064Z,18.10
2018-06-21T07:27:46.854Z,18.00
2018-06-21T07:30:15.687Z,17.90
2018-06-21T07:32:44.459Z,18.00
2018-06-21T07:35:13.330Z,18.10
2018-06-21T07:40:10.502Z,18.20
2018-06-21T07:42:39.294Z,18.10
2018-06-21T07:45:08.112Z,18.10
2018-06-21T07:47:36.910Z,17.90
2018-06-21T07:50:06.290Z,17.80
2018-06-21T07:52:35.060Z,17.80
2018-06-21T07:55:03.863Z,17.90
2018-06-21T07:57:32.645Z,17.90
2018-06-21T08:00:01.410Z,17.80
2018-06-21T08:02:30.174Z,18.00
2018-06-21T08:04:58.953Z,17.80
2018-06-21T08:07:27.719Z,17.90
2018-06-21T08:09:56.502Z,17.70
2018-06-21T08:12:25.266Z,17.60
2018-06-21T08:14:54.022Z,17.60
2018-06-21T08:17:22.790Z,17.70
2018-06-21T08:19:51.598Z,17.50
2018-06-21T08:22:20.374Z,17.50
2018-06-21T08:24:49.182Z,17.60
2018-06-21T08:29:46.338Z,17.50
2018-06-21T08:32:15.114Z,17.50
2018-06-21T08:34:43.883Z,17.40
2018-06-21T08:37:12.666Z,17.10
2018-06-21T08:39:41.450Z,17.00
2018-06-21T08:42:10.198Z,17.10
2018-06-21T08:44:38.992Z,17.20
2018-06-21T08:47:07.842Z,17.00
2018-06-21T08:49:36.641Z,17.10
2018-06-21T08:52:05.532Z,17.10
2018-06-21T08:54:34.242Z,16.90
2018-06-21T08:57:03.006Z,16.80
2018-06-21T08:59:31.814Z,17.10
2018-06-21T09:02:00.576Z,17.10
2018-06-21T09:04:29.338Z,17.20
2018-06-21T09:06:58.457Z,17.00
2018-06-21T09:09:27.298Z,17.00
2018-06-21T09:11:56.088Z,16.90
2018-06-21T09:14:24.882Z,16.80
2018-06-21T09:16:53.650Z,16.70
2018-06-21T09:19:22.410Z,16.80
2018-06-21T09:21:51.174Z,16.80
2018-06-21T09:24:19.931Z,16.80
2018-06-21T09:26:48.718Z,16.80
2018-06-21T09:29:17.492Z,14.50
2018-06-21T09:31:46.238Z,16.90
2018-06-21T09:34:15.030Z,17.10
2018-06-21T09:36:44.690Z,17.20
2018-06-21T09:39:18.647Z,17.20
2018-06-21T09:41:52.648Z,17.10
2018-06-21T09:44:26.750Z,17.10
2018-06-21T09:47:01.083Z,17.00
2018-06-21T09:49:30.639Z,17.00
2018-06-21T09:52:01.475Z,17.10
2018-06-21T09:54:30.551Z,17.00
2018-06-21T09:56:59.817Z,16.90
2018-06-21T09:59:29.253Z,16.90
2018-06-21T10:01:58.044Z,16.90
2018-06-21T10:04:26.853Z,16.90
2018-06-21T10:06:55.694Z,17.00
2018-06-21T10:09:24.488Z,17.10
2018-06-21T10:11:53.236Z,16.90
2018-06-21T10:14:22.390Z,16.80
2018-06-21T10:16:51.286Z,16.80
2018-06-21T10:19:20.149Z,16.70
2018-06-21T10:21:48.951Z,16.70
2018-06-21T10:24:17.739Z,16.80
2018-06-21T10:26:46.494Z,16.90
2018-06-21T10:29:15.223Z,17.00
2018-06-21T10:31:43.998Z,17.00
2018-06-21T10:34:12.788Z,16.90
2018-06-21T10:36:41.594Z,16.90
2018-06-21T10:39:11.800Z,16.90
2018-06-21T10:41:40.798Z,16.90
2018-06-21T10:44:09.564Z,17.10
2018-06-21T10:46:38.321Z,17.20
2018-06-21T10:49:07.114Z,17.30
2018-06-21T10:51:35.899Z,17.30
2018-06-21T10:56:33.623Z,17.10
2018-06-21T10:59:02.381Z,17.00
2018-06-21T11:01:31.198Z,16.80
2018-06-21T11:04:00.012Z,16.80
2018-06-21T11:06:28.794Z,16.80
2018-06-21T11:08:57.605Z,16.70
2018-06-21T11:11:26.438Z,16.70
2018-06-21T11:13:55.240Z,16.60
2018-06-21T11:16:23.994Z,16.60
2018-06-21T11:18:52.774Z,16.70
2018-06-21T11:21:21.539Z,16.70
2018-06-21T11:23:50.310Z,16.60
2018-06-21T11:26:19.117Z,16.60
2018-06-21T11:28:47.947Z,16.50
2018-06-21T11:31:16.701Z,16.50
2018-06-21T11:33:45.723Z,16.40
2018-06-21T11:36:14.513Z,16.50
2018-06-21T11:38:43.266Z,16.40
2018-06-21T11:41:12.041Z,16.40
2018-06-21T11:43:40.815Z,16.40
2018-06-21T11:46:09.560Z,16.50
2018-06-21T11:48:38.340Z,16.40
2018-06-21T11:51:07.135Z,16.40
2018-06-21T11:53:35.902Z,16.30
2018-06-21T11:56:04.670Z,16.30
2018-06-21T11:58:33.510Z,16.30
2018-06-21T12:01:02.276Z,16.30
2018-06-21T12:03:31.045Z,16.20
2018-06-21T12:05:59.902Z,16.30
2018-06-21T12:08:28.687Z,16.40
2018-06-21T12:10:57.566Z,16.40
2018-06-21T12:13:26.414Z,16.40
2018-06-21T12:15:55.186Z,16.40
2018-06-21T12:18:23.946Z,16.40
2018-06-21T12:20:52.743Z,16.40
2018-06-21T12:23:21.515Z,16.40
2018-06-21T12:25:50.342Z,18.90
2018-06-21T12:28:19.106Z,16.10
2018-06-21T12:30:47.854Z,16.10
2018-06-21T12:33:16.634Z,16.10
2018-06-21T12:35:45.398Z,16.00
2018-06-21T12:38:14.211Z,16.00
2018-06-21T12:40:43.007Z,16.10
2018-06-21T12:43:11.802Z,16.00
2018-06-21T12:45:40.691Z,15.90
2018-06-21T12:48:09.474Z,15.80
2018-06-21T12:50:38.219Z,15.80
2018-06-21T12:53:07.103Z,15.80
2018-06-21T12:55:35.870Z,15.80
2018-06-21T12:58:04.653Z,15.80
2018-06-21T13:00:33.451Z,15.70
2018-06-21T13:03:02.302Z,15.50
2018-06-21T13:05:31.178Z,15.40
2018-06-21T13:07:59.894Z,15.30
2018-06-21T13:10:39.781Z,15.20
2018-06-21T13:13:22.318Z,15.10
2018-06-21T13:15:51.113Z,15.00
2018-06-21T13:18:19.890Z,14.80
2018-06-21T13:20:48.667Z,14.80
2018-06-21T13:23:17.470Z,14.80
2018-06-21T13:25:46.234Z,14.70
2018-06-21T13:28:14.969Z,14.60
2018-06-21T13:30:43.743Z,14.60
2018-06-21T13:33:12.544Z,14.60
2018-06-21T13:35:41.306Z,14.50
2018-06-21T13:38:10.088Z,14.50
2018-06-21T13:40:38.846Z,14.50
2018-06-21T13:43:07.653Z,14.40
2018-06-21T13:45:36.413Z,14.40
2018-06-21T13:48:05.218Z,14.40
2018-06-21T13:50:34.103Z,14.40
2018-06-21T13:53:02.931Z,14.40
2018-06-21T13:55:31.754Z,14.40
2018-06-21T13:58:00.547Z,14.50
2018-06-21T14:00:29.357Z,14.40
2018-06-21T14:02:58.148Z,14.30
2018-06-21T14:05:26.936Z,14.30
2018-06-21T14:07:55.954Z,14.30
2018-06-21T14:10:24.553Z,14.20
2018-06-21T14:12:53.319Z,14.20
2018-06-21T14:15:22.111Z,14.10
2018-06-21T14:17:50.878Z,14.10
2018-06-21T14:20:19.674Z,13.90
2018-06-21T14:22:48.442Z,13.90
2018-06-21T14:25:17.223Z,13.90
2018-06-21T14:27:45.978Z,13.90
2018-06-21T14:30:14.823Z,13.90
2018-06-21T14:32:43.574Z,13.90
2018-06-21T14:35:12.378Z,13.90
2018-06-21T14:37:41.141Z,13.70
2018-06-21T14:40:09.907Z,13.70
2018-06-21T14:42:38.694Z,13.70
2018-06-21T14:45:07.486Z,13.80
2018-06-21T14:47:36.264Z,13.80
2018-06-21T14:50:05.116Z,13.70
2018-06-21T14:52:33.926Z,13.80
2018-06-21T14:55:02.762Z,13.70
2018-06-21T14:57:31.566Z,13.80
2018-06-21T15:00:00.330Z,13.70
2018-06-21T15:04:57.493Z,13.70
2018-06-21T15:07:26.247Z,13.60
2018-06-21T15:09:55.026Z,13.50
2018-06-21T15:12:23.802Z,13.60
2018-06-21T15:14:52.681Z,13.60
2018-06-21T15:17:21.466Z,13.50
2018-06-21T15:19:50.243Z,13.50
2018-06-21T15:22:19.274Z,13.50
2018-06-21T15:24:48.043Z,13.40
2018-06-21T15:27:16.790Z,13.40
2018-06-21T15:29:45.566Z,13.30
2018-06-21T15:32:14.326Z,13.30
2018-06-21T15:34:43.084Z,13.20
2018-06-21T15:37:11.865Z,13.10
2018-06-21T15:39:40.694Z,13.10
2018-06-21T15:42:09.552Z,13.00
2018-06-21T15:44:38.335Z,13.10
2018-06-21T15:47:07.129Z,13.10
2018-06-21T15:49:35.902Z,13.10
2018-06-21T15:52:04.805Z,13.10
2018-06-21T15:54:33.585Z,13.20
2018-06-21T15:57:02.343Z,13.20
2018-06-21T15:59:31.101Z,13.10
2018-06-21T16:01:59.894Z,13.10
2018-06-21T16:04:28.657Z,13.10
2018-06-21T16:06:57.506Z,13.10
2018-06-21T16:09:26.322Z,13.10
2018-06-21T16:11:55.070Z,13.10
2018-06-21T16:14:23.878Z,13.00
2018-06-21T16:16:52.674Z,13.00
2018-06-21T16:19:21.506Z,13.00
2018-06-21T16:21:50.294Z,13.00
2018-06-21T16:24:19.071Z,13.00
2018-06-21T16:26:47.831Z,12.90
2018-06-21T16:29:16.596Z,12.90
2018-06-21T16:31:45.398Z,13.00
2018-06-21T16:34:14.182Z,13.00
2018-06-21T16:36:42.937Z,13.10
2018-06-21T16:39:12.159Z,13.20
2018-06-21T16:41:40.982Z,13.40
2018-06-21T16:44:09.780Z,13.50
2018-06-21T16:46:38.582Z,13.60
2018-06-21T16:49:07.487Z,13.60
2018-06-21T16:51:36.252Z,13.50
2018-06-21T16:54:05.032Z,13.50
2018-06-21T16:56:33.871Z,13.50
2018-06-21T16:59:02.642Z,13.60
2018-06-21T17:01:31.394Z,13.80
2018-06-21T17:04:00.170Z,13.70
2018-06-21T17:06:29.025Z,13.60
2018-06-21T17:08:57.794Z,13.70
2018-06-21T17:11:26.598Z,13.70
2018-06-21T17:13:55.394Z,14.10
2018-06-21T17:16:24.172Z,14.40
2018-06-21T17:18:52.942Z,14.30
2018-06-21T17:21:21.712Z,14.20
2018-06-21T17:23:50.504Z,13.90
2018-06-21T17:26:19.270Z,13.70
2018-06-21T17:28:48.025Z,13.60
2018-06-21T17:31:16.803Z,13.50
2018-06-21T17:33:45.594Z,13.50
2018-06-21T17:36:14.394Z,13.40
2018-06-21T17:38:43.690Z,13.40
2018-06-21T17:41:12.482Z,13.40
2018-06-21T17:43:41.345Z,14.90
2018-06-21T17:46:10.142Z,13.30
2018-06-21T17:48:38.864Z,13.40
2018-06-21T17:51:07.678Z,13.40
2018-06-21T17:53:36.442Z,13.20
2018-06-21T17:56:05.203Z,13.20
2018-06-21T17:58:33.927Z,13.40
2018-06-21T18:03:31.099Z,13.80
2018-06-21T18:05:59.896Z,13.60
2018-06-21T18:08:28.765Z,13.50
2018-06-21T18:10:57.558Z,13.50
2018-06-21T18:13:26.410Z,13.40
2018-06-21T18:15:55.211Z,13.40
2018-06-21T18:18:23.986Z,13.40
2018-06-21T18:20:52.774Z,13.20
2018-06-21T18:23:21.582Z,13.10
2018-06-21T18:25:50.431Z,13.10
2018-06-21T18:28:19.245Z,13.10
2018-06-21T18:30:48.067Z,13.10
2018-06-21T18:33:16.842Z,13.00
2018-06-21T18:35:45.630Z,13.00
2018-06-21T18:40:42.899Z,13.00
2018-06-21T18:43:11.668Z,12.90
2018-06-21T18:45:40.476Z,12.90
2018-06-21T18:48:09.256Z,12.80
2018-06-21T18:50:38.150Z,12.80
2018-06-21T18:53:06.922Z,12.90
2018-06-21T18:55:35.765Z,12.90
2018-06-21T18:58:04.534Z,13.00
2018-06-21T19:00:33.313Z,13.10
2018-06-21T19:03:02.094Z,13.20
2018-06-21T19:05:30.962Z,13.20
2018-06-21T19:10:38.571Z,13.40
2018-06-21T19:13:07.334Z,13.40
2018-06-21T19:15:36.110Z,13.50
2018-06-21T19:18:05.166Z,13.50
2018-06-21T19:20:33.955Z,13.50
2018-06-21T19:23:02.692Z,13.40
2018-06-21T19:25:31.512Z,13.30
2018-06-21T19:28:00.273Z,13.20
2018-06-21T19:30:29.035Z,13.20
2018-06-21T19:32:57.826Z,13.10
2018-06-21T19:35:26.646Z,13.10
2018-06-21T19:37:55.426Z,13.10
2018-06-21T19:40:24.190Z,13.10
2018-06-21T19:42:53.021Z,13.10
2018-06-21T19:45:22.166Z,13.00
2018-06-21T19:47:50.918Z,12.90
2018-06-21T19:50:20.441Z,12.90
2018-06-21T19:52:49.242Z,12.90
2018-06-21T19:55:18.006Z,12.90
2018-06-21T19:57:46.781Z,12.80
2018-06-21T20:00:15.939Z,12.80
2018-06-21T20:02:50.122Z,12.80
2018-06-21T20:05:18.954Z,12.70
2018-06-21T20:07:47.706Z,12.60
2018-06-21T20:10:16.548Z,12.50
2018-06-21T20:12:45.434Z,12.50
2018-06-21T20:15:14.234Z,12.40
2018-06-21T20:17:45.110Z,12.30
2018-06-21T20:20:19.142Z,12.30
2018-06-21T20:22:47.951Z,12.30
2018-06-21T20:27:45.136Z,12.40
2018-06-21T20:30:14.054Z,12.20
2018-06-21T20:32:44.881Z,12.20
2018-06-21T20:35:13.734Z,12.20
2018-06-21T20:37:43.204Z,12.20
2018-06-21T20:40:11.982Z,12.10
2018-06-21T20:42:41.894Z,12.00
2018-06-21T20:45:10.665Z,12.00
2018-06-21T20:47:39.556Z,12.00
2018-06-21T20:50:08.350Z,12.00
2018-06-21T20:52:37.669Z,12.00
2018-06-21T20:55:06.710Z,11.90
2018-06-21T20:57:35.502Z,11.90
2018-06-21T21:00:04.386Z,11.90
2018-06-21T21:02:33.990Z,11.90
2018-06-21T21:05:08.063Z,11.90
2018-06-21T21:07:36.930Z,11.90
2018-06-21T21:10:07.661Z,11.90
2018-06-21T21:12:36.490Z,11.90
2018-06-21T21:15:06.638Z,11.90
2018-06-21T21:17:35.922Z,11.90
2018-06-21T21:20:05.690Z,11.90
2018-06-21T21:22:35.078Z,11.90
2018-06-21T21:25:03.924Z,11.90
2018-06-21T21:27:32.733Z,11.90
2018-06-21T21:30:01.595Z,11.90
2018-06-21T21:32:30.433Z,11.80
2018-06-21T21:34:59.579Z,11.80
2018-06-21T21:37:28.708Z,11.70
2018-06-21T21:40:01.822Z,11.70
2018-06-21T21:42:31.826Z,11.70
2018-06-21T21:45:00.640Z,11.60
2018-06-21T21:47:29.491Z,11.60
2018-06-21T21:49:58.265Z,11.60
2018-06-21T21:52:27.042Z,11.60
2018-06-21T21:54:55.857Z,11.60
2018-06-21T21:57:24.698Z,11.50
2018-06-21T21:59:59.915Z,11.50
2018-06-21T22:02:28.678Z,11.40
2018-06-21T22:04:57.434Z,11.40
2018-06-21T22:07:26.314Z,11.30
2018-06-21T22:09:55.082Z,11.40
2018-06-21T22:12:23.834Z,11.40
2018-06-21T22:14:52.605Z,11.30
2018-06-21T22:17:21.364Z,11.40
2018-06-21T22:19:50.130Z,11.50
2018-06-21T22:22:18.915Z,11.40
2018-06-21T22:24:47.726Z,11.40
2018-06-21T22:27:16.601Z,11.40
2018-06-21T22:29:45.458Z,11.30
2018-06-21T22:32:14.226Z,11.30
2018-06-21T22:34:42.994Z,11.20
2018-06-21T22:37:11.802Z,11.20
2018-06-21T22:39:40.556Z,11.30
2018-06-21T22:42:09.338Z,11.30
2018-06-21T22:44:38.120Z,11.30
2018-06-21T22:47:06.882Z,11.20
2018-06-21T22:49:35.652Z,11.20
2018-06-21T22:52:04.439Z,11.20
2018-06-21T22:54:33.259Z,11.30
2018-06-21T22:57:02.026Z,11.20
2018-06-21T22:59:30.790Z,11.30
2018-06-21T23:01:59.589Z,11.20
2018-06-21T23:04:28.362Z,11.20
2018-06-21T23:06:57.183Z,11.20
2018-06-21T23:09:25.978Z,11.20
2018-06-21T23:11:54.766Z,11.20
2018-06-21T23:14:23.543Z,11.20
2018-06-21T23:16:55.262Z,11.10
2018-06-21T23:19:27.942Z,11.20
2018-06-21T23:21:56.715Z,11.20
2018-06-21T23:24:26.322Z,11.20
2018-06-21T23:26:55.524Z,11.20
2018-06-21T23:29:24.370Z,11.10
2018-06-21T23:34:21.993Z,11.00
2018-06-21T23:36:51.295Z,11.00
2018-06-21T23:39:20.160Z,10.90
2018-06-21T23:41:49.051Z,11.00
2018-06-21T23:44:17.869Z,11.00
2018-06-21T23:46:46.657Z,11.00
2018-06-21T23:49:15.442Z,11.00
2018-06-21T23:51:44.225Z,11.10
2018-06-21T23:54:14.027Z,11.10
2018-06-21T23:56:43.858Z,11.10
2018-06-21T23:59:12.634Z,11.10
